| Date | Time | Temp. (oF) | Dew Point (oF) | Rel. Hum. (%) | Press. (in.) | Wind Dir. (deg.) | Wind Speed (mph) | Hourly Rainfall (i n.) |
|
|---|---|---|---|---|---|---|---|---|---|
| 1 | 11/08 | 24:00 | 37 | 18 | 46 | 30.34 | 10 | 1 | 0.00 |
| 2 | 11/07 | 23:00 | 38 | 17 | 44 | 30.34 | 10 | 0 | 0.00 |
| 3 | 11/07 | 22:00 | 39 | 18 | 44 | 30.33 | 10 | 2 | 0.00 |
| 4 | 11/07 | 21:00 | 40 | 23 | 51 | 30.32 | 10 | 0 | 0.00 |
| 5 | 11/07 | 20:00 | 41 | 22 | 47 | 30.30 | 10 | 1 | 0.00 |
| 6 | 11/07 | 19:00 | 42 | 23 | 47 | 30.31 | 10 | 1 | 0.00 |
| 7 | 11/07 | 18:00 | 44 | 23 | 44 | 30.30 | 270 | 1 | 0.00 |
| 8 | 11/07 | 17:00 | 47 | 22 | 38 | 30.30 | 300 | 2 | 0.00 |
| 9 | 11/07 | 16:00 | 49 | 23 | 36 | 30.31 | 330 | 6 | 0.00 |
| 10 | 11/07 | 15:00 | 49 | 22 | 35 | 30.31 | 310 | 4 | 0.00 |
| 11 | 11/07 | 14:00 | 50 | 23 | 36 | 30.31 | 270 | 11 | 0.00 |
| 12 | 11/07 | 13:00 | 49 | 22 | 35 | 30.30 | 310 | 7 | 0.00 |
| 13 | 11/07 | 12:00 | 47 | 22 | 38 | 30.33 | 290 | 9 | 0.00 |
| 14 | 11/07 | 11:00 | 47 | 23 | 39 | 30.35 | 290 | 7 | 0.00 |
| 15 | 11/07 | 10:00 | 45 | 24 | 45 | 30.34 | 290 | 11 | 0.00 |
| 16 | 11/07 | 09:00 | 43 | 26 | 51 | 30.35 | 290 | 6 | 0.00 |
| 17 | 11/07 | 08:00 | 41 | 26 | 56 | 30.35 | 310 | 2 | 0.00 |
| 18 | 11/07 | 07:00 | 38 | 24 | 59 | 30.34 | 300 | 0 | 0.00 |
| 19 | 11/07 | 06:00 | 40 | 23 | 52 | 30.32 | 300 | 1 | 0.00 |
| 20 | 11/07 | 05:00 | 42 | 23 | 47 | 30.32 | 300 | 2 | 0.00 |
| 21 | 11/07 | 04:00 | 44 | 22 | 43 | 30.30 | 330 | 2 | 0.00 |
| 22 | 11/07 | 03:00 | 46 | 25 | 45 | 30.30 | 290 | 1 | 0.00 |
| 23 | 11/07 | 02:00 | 47 | 24 | 41 | 30.28 | 290 | 6 | 0.00 |
| 24 | 11/07 | 01:00 | 49 | 21 | 34 | 30.28 | 310 | 9 | 0.00 |